Flight Track Log - Related Links

Times and Time Zones

All times are in EST time to prevent confusion due to time zone crossing. See the EJA929 flight status page for this flight to view local times or setup timezone preferences in your user account.

Time Position Orientation Groundspeed Altitude Reporting Facility
EST Latitude Longitude Course Direction KTS MPH feet Rate Location/Type
Wed 06:27:00 PM 39.1667 -76.7167 288° West 288 331 5,800  Level Potomac TRACON
Wed 06:28:00 PM 39.2000 -76.7833 303° West 266 306 8,100 2,350 Climbing Potomac TRACON
Wed 06:29:00 PM 39.2167 -76.8833 282° West 270 311 10,500 3,100 Climbing Potomac TRACON
Wed 06:30:00 PM 39.2167 -76.9667 270° West 252 290 14,300 2,550 Climbing Potomac TRACON
Wed 06:31:00 PM 39.0010 -77.3157 218° Southwest  Level FlightAware Approximate
Wed 06:31:00 PM 39.2167 -77.0667 270° West 290 334 15,600  Level Potomac TRACON
Wed 06:32:00 PM 39.1833 -77.1833 250° West 331 381 16,900 1,488 Climbing Potomac TRACON
Wed 06:33:01 PM 39.1167 -77.2500 218° Southwest 321 369 18,600 1,736 Climbing Potomac TRACON
Wed 06:34:01 PM 39.0333 -77.3167 212° Southwest 320 368 20,400 1,750 Climbing Potomac TRACON
Wed 06:35:01 PM 38.9333 -77.3500 195° South 416 479 22,100 1,289 Climbing Potomac TRACON
Wed 06:36:02 PM 38.8333 -77.3667 187° South 396 456 23,000 271 Climbing Potomac TRACON
Wed 06:38:20 PM 38.6033 -77.4475 195° South 412 474 23,000 422 Level Washington Center
Wed 06:39:21 PM 38.4794 -77.5189 204° Southwest 408 470 24,400 1,344 Climbing Washington Center
Wed 06:40:25 PM 38.3833 -77.5906 210° Southwest 405 466 25,800 1,536 Climbing Washington Center
Wed 06:41:26 PM 38.3119 -77.6972 230° Southwest 398 458 27,600 1,820 Climbing Washington Center
Wed 06:42:27 PM 38.2253 -77.7931 221° Southwest 389 448 29,500 1,728 Climbing Washington Center
Wed 06:43:31 PM 38.1514 -77.8700 219° Southwest 374 430 31,200 1,584 Climbing Washington Center
Wed 06:44:32 PM 38.0739 -77.9503 219° Southwest 362 417 32,800 1,512 Climbing Washington Center
Wed 06:45:34 PM 37.9819 -78.0242 212° Southwest 378 435 34,300 1,776 Climbing Washington Center
Wed 06:46:37 PM 37.9050 -78.1033 219° Southwest 356 410 36,500 2,390 Climbing Washington Center
Wed 06:47:37 PM 37.8219 -78.1883 219° Southwest 325 374 39,200 2,177 Climbing Washington Center
Wed 06:48:41 PM 37.7542 -78.2583 219° Southwest 323 372 41,000 1,680 Climbing Washington Center
Wed 06:49:42 PM 37.6892 -78.3267 220° Southwest 317 365 42,700 976 Climbing Washington Center
Wed 06:50:44 PM 37.6256 -78.3936 220° Southwest 308 354 43,000 148 Climbing Washington Center
Wed 06:51:44 PM 37.5394 -78.4819 219° Southwest 332 382 43,000  Level Washington Center
Wed 06:52:48 PM 37.4636 -78.5606 219° Southwest 351 404 43,000  Level Washington Center
Wed 06:53:49 PM 37.3858 -78.6389 219° Southwest 361 415 43,000  Level Washington Center
Wed 06:54:50 PM 37.3078 -78.7192 219° Southwest 364 419 43,000  Level Washington Center
Wed 06:55:54 PM 37.2281 -78.8006 219° Southwest 371 427 43,000  Level Washington Center
Wed 06:56:54 PM 37.1317 -78.8975 219° Southwest 376 433 43,000  Level Washington Center
Wed 06:57:55 PM 37.0525 -78.9783 219° Southwest 375 432 43,000  Level Washington Center
Wed 06:58:58 PM 36.9733 -79.0572 219° Southwest 374 430 43,000  Level Washington Center
Wed 06:59:59 PM 36.8956 -79.1347 219° Southwest 369 425 43,000  Level Washington Center
Wed 07:01:02 PM 36.8053 -79.2272 219° Southwest 356 410 43,000  Level Washington Center
Wed 07:02:04 PM 36.7306 -79.3008 218° Southwest 350 403 43,000  Level Washington Center
Wed 07:03:06 PM 36.6553 -79.3753 218° Southwest 350 403 43,000  Level Washington Center
Wed 07:04:07 PM 36.5814 -79.4469 218° Southwest 348 400 43,000  Level Washington Center
Wed 07:05:08 PM 36.4922 -79.5389 220° Southwest 351 404 43,000  Level Washington Center
Wed 07:06:08 PM 36.4175 -79.6122 218° Southwest 351 404 43,000  Level Washington Center
Wed 07:07:12 PM 36.3381 -79.6881 218° Southwest 350 403 43,000  Level Washington Center
Wed 07:08:12 PM 36.2544 -79.7703 218° Southwest 352 405 43,000  Level Washington Center
Wed 07:09:16 PM 36.1847 -79.8411 219° Southwest 352 405 43,000  Level Washington Center
Wed 07:10:16 PM 36.1086 -79.9161 219° Southwest 351 404 43,000 242 Level Washington Center
Wed 07:11:20 PM 36.0294 -79.9844 215° Southwest 352 405 43,500 762 Climbing Washington Center
Wed 07:12:22 PM 35.9169 -80.0411 202° Southwest 366 421 44,600 667 Climbing Washington Center
Wed 07:13:35 PM 35.7947 -80.1011 202° Southwest 364 419 45,000 180 Climbing Atlanta Center
Wed 07:14:35 PM 35.7022 -80.1439 201° Southwest 384 442 45,000  Level Atlanta Center
Wed 07:15:35 PM 35.5917 -80.2081 205° Southwest 389 448 45,000  Level Atlanta Center
Wed 07:16:35 PM 35.4889 -80.2586 202° Southwest 394 453 45,000  Level Atlanta Center
Wed 07:17:35 PM 35.3822 -80.3119 202° Southwest 404 465 45,000  Level Atlanta Center
Wed 07:18:35 PM 35.2814 -80.3597 201° Southwest 407 468 45,000  Level Atlanta Center
Wed 07:19:35 PM 35.1725 -80.4156 203° Southwest 412 474 45,000  Level Atlanta Center
Wed 07:20:35 PM 35.0694 -80.4658 202° Southwest 406 467 45,000  Level Atlanta Center
Wed 07:22:23 PM 34.8789 -80.5619 202° Southwest 411 473 45,000  Level Jacksonville Center
Wed 07:23:23 PM 34.7919 -80.6047 202° Southwest 411 473 45,000  Level Jacksonville Center
Wed 07:24:23 PM 34.6886 -80.6481 199° South 397 457 45,000  Level Jacksonville Center
Wed 07:25:23 PM 34.5686 -80.7142 204° Southwest 403 464 45,000  Level Jacksonville Center
Wed 07:26:23 PM 34.4653 -80.7594 200° South 408 470 45,000  Level Jacksonville Center
Wed 07:27:23 PM 34.3597 -80.8175 204° Southwest 408 470 45,000  Level Jacksonville Center
Wed 07:28:23 PM 34.2747 -80.8547 200° South 408 470 45,000  Level Jacksonville Center
Wed 07:29:23 PM 34.1583 -80.8725 187° South 408 470 45,000  Level Jacksonville Center
Wed 07:30:23 PM 34.0372 -80.8778 182° South 421 484 45,000 -50 Level Jacksonville Center
Wed 07:31:23 PM 33.9206 -80.8828 182° South 426 490 44,900  Descending Jacksonville Center
Wed 07:32:23 PM 33.7997 -80.8931 184° South 426 490 45,000 50 Climbing Jacksonville Center
Wed 07:33:23 PM 33.6786 -80.8983 182° South 426 490 45,000  Level Jacksonville Center
Wed 07:34:23 PM 33.5600 -80.9036 182° South 426 490 45,000  Level Jacksonville Center
Wed 07:35:23 PM 33.4411 -80.9086 182° South 426 490 45,000  Level Jacksonville Center
Wed 07:36:23 PM 33.3200 -80.9164 183° South 426 490 45,000  Level Jacksonville Center
Wed 07:37:23 PM 33.2011 -80.9239 183° South 426 490 45,000  Level Jacksonville Center
Wed 07:38:23 PM 33.0803 -80.9292 182° South 432 497 45,000  Level Jacksonville Center
Wed 07:39:23 PM 32.9614 -80.9342 182° South 432 497 45,000  Level Jacksonville Center
Wed 07:40:23 PM 32.8278 -80.9419 183° South 432 497 45,000  Level Jacksonville Center
Wed 07:41:23 PM 32.7133 -80.9619 188° South 432 497 45,000  Level Jacksonville Center
Wed 07:42:23 PM 32.6075 -81.0061 199° South 400 460 45,000  Level Jacksonville Center
Wed 07:43:23 PM 32.5017 -81.0500 199° South 400 460 45,000 -450 Level Jacksonville Center
Wed 07:44:23 PM 32.4000 -81.0939 200° South 400 460 44,100 -950 Descending Jacksonville Center
Wed 07:45:23 PM 32.2964 -81.1403 201° Southwest 400 460 43,100 -550 Descending Jacksonville Center
Wed 07:46:23 PM 32.1967 -81.1814 199° South 389 448 43,000 -50 Descending Jacksonville Center
Wed 07:47:23 PM 32.0972 -81.2250 200° South 383 441 43,000  Level Jacksonville Center
Wed 07:48:23 PM 31.9953 -81.2661 199° South 388 447 43,000  Level Jacksonville Center
Wed 07:49:23 PM 31.8997 -81.3069 200° South 376 433 43,000  Level Jacksonville Center
Wed 07:50:23 PM 31.8125 -81.3425 199° South 381 438 43,000  Level Jacksonville Center
Wed 07:51:23 PM 31.7025 -81.3883 200° South 386 444 43,000  Level Jacksonville Center
Wed 07:52:23 PM 31.6131 -81.4264 200° South 386 444 43,000  Level Jacksonville Center
Wed 07:53:23 PM 31.5031 -81.4719 199° South 381 438 43,000  Level Jacksonville Center
Wed 07:54:23 PM 31.3992 -81.5150 199° South 386 444 43,000  Level Jacksonville Center
Wed 07:55:23 PM 31.2972 -81.5578 200° South 386 444 43,000  Level Jacksonville Center
Wed 07:56:23 PM 31.1953 -81.6031 201° Southwest 386 444 43,000  Level Jacksonville Center
Wed 07:57:23 PM 31.0933 -81.6431 199° South 386 444 43,000  Level Jacksonville Center
Wed 07:58:23 PM 30.9917 -81.6856 200° South 386 444 43,000  Level Jacksonville Center
Wed 07:59:23 PM 30.8897 -81.7258 199° South 386 444 43,000  Level Jacksonville Center
Wed 08:00:23 PM 30.7878 -81.7681 200° South 386 444 43,000  Level Jacksonville Center
Wed 08:01:23 PM 30.6878 -81.8078 199° South 386 444 43,000  Level Jacksonville Center
Wed 08:02:23 PM 30.5900 -81.8500 200° South 386 444 43,000  Level Jacksonville Center
Wed 08:03:23 PM 30.4942 -81.8800 195° South 386 444 43,000  Level Jacksonville Center
Wed 08:04:23 PM 30.3922 -81.9244 201° Southwest 391 450 43,000  Level Jacksonville Center
Wed 08:05:23 PM 30.2903 -81.9664 200° South 391 450 43,000 -50 Level Jacksonville Center
Wed 08:06:23 PM 30.1883 -82.0083 200° South 391 450 42,900  Descending Jacksonville Center
Wed 08:07:23 PM 30.0864 -82.0500 199° South 391 450 43,000 -100 Climbing Jacksonville Center
Wed 08:08:23 PM 29.9800 -82.0892 198° South 391 450 42,700 -600 Descending Jacksonville Center
Wed 08:09:23 PM 29.8717 -82.1022 186° South 391 450 41,800 -850 Descending Jacksonville Center
Wed 08:10:23 PM 29.7672 -82.1125 185° South 391 450 41,000 -400 Descending Jacksonville Center
Wed 08:11:23 PM 29.6567 -82.1231 185° South 391 450 41,000  Level Jacksonville Center
Wed 08:12:23 PM 29.5439 -82.1358 186° South 396 456 41,000  Level Jacksonville Center
Wed 08:13:23 PM 29.4333 -82.1486 186° South 402 463 41,000  Level Jacksonville Center
Wed 08:14:23 PM 29.3167 -82.1614 185° South 413 475 41,000  Level Jacksonville Center
Wed 08:15:23 PM 29.2061 -82.1742 186° South 413 475 41,000  Level Jacksonville Center
Wed 08:16:23 PM 29.0975 -82.1867 186° South 403 464 41,000  Level Jacksonville Center
Wed 08:17:23 PM 28.9892 -82.1994 186° South 403 464 41,000  Level Jacksonville Center
Wed 08:18:23 PM 28.8828 -82.2119 186° South 398 458 41,000  Level Jacksonville Center
Wed 08:19:23 PM 28.7742 -82.2269 187° South 398 458 41,000  Level Jacksonville Center
Wed 08:20:23 PM 28.6658 -82.2347 184° South 398 458 41,000  Level Jacksonville Center
Wed 08:21:23 PM 28.5553 -82.2497 187° South 398 458 41,000  Level Jacksonville Center
Wed 08:22:23 PM 28.4447 -82.2597 185° South 398 458 41,000 -300 Level Jacksonville Center
Wed 08:23:23 PM 28.3342 -82.2747 187° South 405 466 40,400 -1,651 Descending Jacksonville Center
Wed 08:26:01 PM 28.0431 -82.3044 185° South 420 483 35,000 -1,507 Descending Miami Center
Wed 08:27:02 PM 27.9047 -82.2650 166° South 431 496 34,900 -446 Descending Miami Center
Wed 08:28:02 PM 27.7750 -82.2189 163° South 431 496 34,100 -1,008 Descending Miami Center
Wed 08:29:01 PM 27.6533 -82.1781 163° South 446 513 32,900 -1,160 Descending Miami Center
Wed 08:30:01 PM 27.5347 -82.1142 154° Southeast 459 528 31,800 -1,289 Descending Miami Center
Wed 08:31:02 PM 27.4622 -81.9867 123° Southeast 508 585 30,300 -1,400 Descending Miami Center
Wed 08:32:01 PM 27.3856 -81.8500 122° Southeast 528 608 29,000 -1,815 Descending Miami Center
Wed 08:33:01 PM 27.3050 -81.7017 121° Southeast 512 589 26,700 -2,100 Descending Miami Center
Wed 08:34:01 PM 27.2322 -81.5681 121° Southeast 507 583 24,800 -2,182 Descending Miami Center
Wed 08:35:02 PM 27.1631 -81.4461 122° Southeast 484 557 22,300 -2,380 Descending Miami Center
Wed 08:36:02 PM 27.1100 -81.3414 120° Southeast 452 520 20,000 -2,350 Descending Miami Center
Wed 08:37:02 PM 27.0503 -81.2411 124° Southeast 419 482 17,600 -2,017 Descending Miami Center
Wed 08:38:01 PM 26.9969 -81.1389 120° Southeast 360 414 16,000 -2,050 Descending Miami Center
Wed 08:39:02 PM 26.9581 -81.0444 115° Southeast 334 384 13,500 -2,182 Descending Miami Center
Wed 08:40:02 PM 26.9756 -80.9400 79° East 334 384 11,600 -1,462 Descending Miami Center
Wed 08:41:01 PM 26.9908 -80.8406 80° East 334 384 10,600 -800 Descending Miami Center
Wed 08:42:02 PM 27.0042 -80.7406 81° East 305 351 10,000 -843 Descending Miami Center
Wed 08:43:02 PM 26.9978 -80.6589 95° East 268 308 8,900 -1,300 Descending Miami Center
Wed 08:44:02 PM 27.0083 -80.5731 82° East 274 315 7,400 -1,250 Descending Miami Center
Wed 08:45:02 PM 26.9853 -80.5022 110° East 268 308 6,400 -1,160 Descending Miami Center
Wed 08:46:01 PM 26.9261 -80.4469 140° Southeast 241 277 5,100 -1,250 Descending Miami Center
Wed 08:47:02 PM 26.8667 -80.4008 145° Southeast 258 297 3,900 -992 Descending Miami Center
Wed 08:48:02 PM 26.8050 -80.3594 149° Southeast 263 303 3,100 -450 Descending Miami Center
Wed 08:49:02 PM 26.7494 -80.3253 151° Southeast 263 303 3,000 -50 Descending Miami Center
Wed 08:50:02 PM 26.7089 -80.2683 129° Southeast 226 260 3,000  Level Miami Center
Wed 08:52:00 PM 26.6193 -80.1466 50° Northeast  Level FlightAware Approximate
Wed 08:59:00 PM 26.6667 -80.0833 50° Northeast  Level FlightAware Approximate
Wed 09:00:00 PM 26.6832 -80.0956 50° Northeast  Level Estimated
Wed 09:01:00 PM 26.6832 -80.0956 50° Northeast  Level Estimated

Login

Don't have an account? Register now (free) for customized features, flight alerts, and more!